EGPK/PIK METAR and TAF weather

Enter ICAO airport designator
Station Type Date Time Source
EGPK METAR 2022/01/19 20:20 UTC NOAA

EGPK 192020Z 31018KT CAVOK 06/01 Q1030


Station Type Date Time Source
EGPK Decoded METAR 2022/01/19 20:20 UTC NOAA

Prestwick Airport, United Kingdom (EGPK) 55-30N 004-35W 0M
Jan 19, 2022 - 03:20 PM EST / 2022.01.19 2020 UTC
Wind: from the NW (310 degrees) at 21 MPH (18 KT):0
Visibility: greater than 7 mile(s):0
Temperature: 42 F (6 C)
Dew Point: 33 F (1 C)
Relative Humidity: 70%
Pressure (altimeter): 30.42 in. Hg (1030 hPa)
ob: EGPK 192020Z 31018KT CAVOK 06/01 Q1030
cycle: 20

Station Type Date Time Source
EGPK TAF 2022/01/19 18:09 UTC NOAA

TAF EGPK 191656Z 1918/2018 30009KT 9999 SCT040

Example: see airport list